createdAt,value
2018-10-01T00:01:03.529Z,7.50
2018-10-01T00:03:31.827Z,7.43
2018-10-01T00:05:59.993Z,7.70
2018-10-01T00:08:28.315Z,7.40
2018-10-01T00:10:56.572Z,8.10
2018-10-01T00:13:24.825Z,8.07
2018-10-01T00:15:53.202Z,7.23
2018-10-01T00:18:21.419Z,7.50
2018-10-01T00:20:55.097Z,6.93
2018-10-01T00:23:23.288Z,7.20
2018-10-01T00:25:51.499Z,7.73
2018-10-01T00:28:19.731Z,7.70
2018-10-01T00:30:47.949Z,7.97
2018-10-01T00:33:16.161Z,6.87
2018-10-01T00:35:44.399Z,7.40
2018-10-01T00:38:12.627Z,6.83
2018-10-01T00:40:40.879Z,6.73
2018-10-01T00:43:09.158Z,6.60
2018-10-01T00:45:37.369Z,7.00
2018-10-01T00:48:05.641Z,6.77
2018-10-01T00:50:33.933Z,6.80
2018-10-01T00:53:02.142Z,6.90
2018-10-01T00:55:30.362Z,6.73
2018-10-01T00:57:58.633Z,6.30
2018-10-01T01:00:26.892Z,6.90
2018-10-01T01:02:55.490Z,5.93
2018-10-01T01:05:23.773Z,6.13
2018-10-01T01:07:52.035Z,5.63
2018-10-01T01:10:20.249Z,5.67
2018-10-01T01:12:48.478Z,5.30
2018-10-01T01:15:16.708Z,5.47
2018-10-01T01:17:44.941Z,5.40
2018-10-01T01:20:13.150Z,4.93
2018-10-01T01:22:41.380Z,5.57
2018-10-01T01:25:09.619Z,5.33
2018-10-01T01:27:37.861Z,5.10
2018-10-01T01:30:06.123Z,5.37
2018-10-01T01:32:34.334Z,5.53
2018-10-01T01:35:02.564Z,5.10
2018-10-01T01:37:30.785Z,4.97
2018-10-01T01:39:59.018Z,5.30
2018-10-01T01:42:27.252Z,5.60
2018-10-01T01:44:55.466Z,4.87
2018-10-01T01:47:23.667Z,5.30
2018-10-01T01:49:51.887Z,4.97
2018-10-01T01:52:20.099Z,5.63
2018-10-01T01:54:48.418Z,5.73
2018-10-01T01:57:16.610Z,5.13
2018-10-01T01:59:44.847Z,5.77
2018-10-01T02:02:13.046Z,5.17
2018-10-01T02:04:41.300Z,6.10
2018-10-01T02:07:09.493Z,5.73
2018-10-01T02:09:37.720Z,5.70
2018-10-01T02:12:06.000Z,5.93
2018-10-01T02:14:34.194Z,5.60
2018-10-01T02:17:02.449Z,5.80
2018-10-01T02:19:30.653Z,6.27
2018-10-01T02:21:58.872Z,6.33
2018-10-01T02:24:27.104Z,6.07
2018-10-01T02:26:55.360Z,5.77
2018-10-01T02:29:23.595Z,5.57
2018-10-01T02:31:51.830Z,5.47
2018-10-01T02:36:57.256Z,5.80
2018-10-01T02:39:25.454Z,4.97
2018-10-01T02:41:53.670Z,5.50
2018-10-01T02:44:21.943Z,5.50
2018-10-01T02:46:50.153Z,5.50
2018-10-01T02:49:18.344Z,5.00
2018-10-01T02:51:51.940Z,4.80
2018-10-01T02:54:25.690Z,5.00
2018-10-01T02:56:53.933Z,4.50
2018-10-01T02:59:22.177Z,4.60
2018-10-01T03:01:50.389Z,5.40
2018-10-01T03:04:18.634Z,4.80
2018-10-01T03:06:46.830Z,4.40
2018-10-01T03:09:15.451Z,4.33
2018-10-01T03:11:43.645Z,5.33
2018-10-01T03:14:12.346Z,4.67
2018-10-01T03:16:40.596Z,4.37
2018-10-01T03:19:08.765Z,4.70
2018-10-01T03:21:38.082Z,4.30
2018-10-01T03:24:06.545Z,4.70
2018-10-01T03:26:34.760Z,4.90
2018-10-01T03:29:02.992Z,4.43
2018-10-01T03:31:31.212Z,4.00
2018-10-01T03:33:59.385Z,4.30
2018-10-01T03:36:27.679Z,4.40
2018-10-01T03:38:55.935Z,4.37
2018-10-01T03:41:24.104Z,4.77
2018-10-01T03:43:52.337Z,5.03
2018-10-01T03:46:20.534Z,4.50
2018-10-01T03:48:48.752Z,4.27
2018-10-01T03:51:16.951Z,4.43
2018-10-01T03:53:45.141Z,4.33
2018-10-01T03:56:13.333Z,4.87
2018-10-01T03:58:41.537Z,4.80
2018-10-01T04:01:09.785Z,4.90
2018-10-01T04:03:37.981Z,4.73
2018-10-01T04:06:06.402Z,4.07
2018-10-01T04:08:34.610Z,5.00
2018-10-01T04:11:02.807Z,4.20
2018-10-01T04:13:31.009Z,4.60
2018-10-01T04:15:59.220Z,4.40
2018-10-01T04:18:27.408Z,4.13
2018-10-01T04:20:55.601Z,4.17
2018-10-01T04:23:23.862Z,4.40
2018-10-01T04:25:52.067Z,4.50
2018-10-01T04:28:20.323Z,4.30
2018-10-01T04:30:48.482Z,4.47
2018-10-01T04:33:16.712Z,4.60
2018-10-01T04:35:44.939Z,4.87
2018-10-01T04:38:13.153Z,4.30
2018-10-01T04:40:41.402Z,4.37
2018-10-01T04:43:09.784Z,4.70
2018-10-01T04:45:38.012Z,4.67
2018-10-01T04:48:06.281Z,4.83
2018-10-01T04:50:34.487Z,4.20
2018-10-01T04:53:02.718Z,4.17
2018-10-01T04:55:30.968Z,4.10
2018-10-01T04:57:59.361Z,4.70
2018-10-01T05:00:27.519Z,4.80
2018-10-01T05:02:55.830Z,3.90
2018-10-01T05:05:24.057Z,4.30
2018-10-01T05:07:52.364Z,3.97
2018-10-01T05:10:20.595Z,4.07
2018-10-01T05:12:48.834Z,4.03
2018-10-01T05:15:17.117Z,3.60
2018-10-01T05:17:45.336Z,4.23
2018-10-01T05:20:13.545Z,3.90
2018-10-01T05:22:41.781Z,4.00
2018-10-01T05:25:10.002Z,3.63
2018-10-01T05:27:38.233Z,3.53
2018-10-01T05:30:06.456Z,3.87
2018-10-01T05:32:34.680Z,3.63
2018-10-01T05:35:02.901Z,3.83
2018-10-01T05:37:31.162Z,3.47
2018-10-01T05:39:59.588Z,3.33
2018-10-01T05:42:27.809Z,3.90
2018-10-01T05:44:56.076Z,3.50
2018-10-01T05:47:24.306Z,3.97
2018-10-01T05:49:52.573Z,3.83
2018-10-01T05:52:20.866Z,3.47
2018-10-01T05:54:49.070Z,3.47
2018-10-01T05:57:17.287Z,3.73
2018-10-01T05:59:45.529Z,3.30
2018-10-01T06:02:13.877Z,3.33
2018-10-01T06:04:42.099Z,2.90
2018-10-01T06:07:10.314Z,3.37
2018-10-01T06:09:38.556Z,3.73
2018-10-01T06:12:07.081Z,3.07
2018-10-01T06:14:35.288Z,3.40
2018-10-01T06:17:03.529Z,3.63
2018-10-01T06:19:31.863Z,3.33
2018-10-01T06:22:00.097Z,3.60
2018-10-01T06:24:28.314Z,3.63
2018-10-01T06:26:56.578Z,3.33
2018-10-01T06:29:25.142Z,4.10
2018-10-01T06:31:53.495Z,4.70
2018-10-01T06:34:21.744Z,4.13
2018-10-01T06:36:49.980Z,3.90
2018-10-01T06:39:18.257Z,3.63
2018-10-01T06:41:46.533Z,2.90
2018-10-01T06:44:14.759Z,3.23
2018-10-01T06:46:43.016Z,3.30
2018-10-01T06:49:11.248Z,3.50
2018-10-01T06:51:40.357Z,3.40
2018-10-01T06:54:08.629Z,3.10
2018-10-01T06:56:36.886Z,3.40
2018-10-01T06:59:05.250Z,3.30
2018-10-01T07:01:33.460Z,3.10
2018-10-01T07:04:01.697Z,3.30
2018-10-01T07:06:29.912Z,3.30
2018-10-01T07:08:58.188Z,2.97
2018-10-01T07:11:26.455Z,3.80
2018-10-01T07:13:54.748Z,2.93
2018-10-01T07:16:23.037Z,2.80
2018-10-01T07:18:51.297Z,2.90
2018-10-01T07:21:19.667Z,3.00
2018-10-01T07:23:47.931Z,2.87
2018-10-01T07:26:16.237Z,2.47
2018-10-01T07:28:44.448Z,2.63
2018-10-01T07:31:12.676Z,2.40
2018-10-01T07:33:40.895Z,2.83
2018-10-01T07:36:09.134Z,2.93
2018-10-01T07:38:37.337Z,2.53
2018-10-01T07:41:05.654Z,2.50
2018-10-01T07:43:33.846Z,2.27
2018-10-01T07:46:02.094Z,2.20
2018-10-01T07:48:30.327Z,2.43
2018-10-01T07:50:58.962Z,2.03
2018-10-01T07:53:27.187Z,1.90
2018-10-01T07:55:55.541Z,2.37
2018-10-01T07:58:23.760Z,1.97
2018-10-01T08:00:51.713Z,2.20
2018-10-01T08:03:19.959Z,1.87
2018-10-01T08:05:48.174Z,2.13
2018-10-01T08:08:16.507Z,1.80
2018-10-01T08:10:44.676Z,2.00
2018-10-01T08:13:12.902Z,2.13
2018-10-01T08:15:41.140Z,2.20
2018-10-01T08:18:09.330Z,2.00
2018-10-01T08:20:37.531Z,2.07
2018-10-01T08:23:05.953Z,1.83
2018-10-01T08:25:34.168Z,2.00
2018-10-01T08:28:02.450Z,1.80
2018-10-01T08:30:30.666Z,1.90
2018-10-01T08:32:58.917Z,1.93
2018-10-01T08:35:27.160Z,1.93
2018-10-01T08:37:55.422Z,1.60
2018-10-01T08:40:24.382Z,1.90
2018-10-01T08:42:52.640Z,1.37
2018-10-01T08:45:20.865Z,2.03
2018-10-01T08:47:49.259Z,2.07
2018-10-01T08:50:28.260Z,1.57
2018-10-01T08:53:03.417Z,1.53
2018-10-01T08:55:31.609Z,1.80
2018-10-01T08:57:59.834Z,1.93
2018-10-01T09:00:28.045Z,1.90
2018-10-01T09:02:56.298Z,1.83
2018-10-01T09:05:24.540Z,1.70
2018-10-01T09:07:52.812Z,1.83
2018-10-01T09:10:21.045Z,1.67
2018-10-01T09:12:49.289Z,1.63
2018-10-01T09:15:17.501Z,1.70
2018-10-01T09:17:45.953Z,2.00
2018-10-01T09:20:14.279Z,1.90
2018-10-01T09:22:42.441Z,1.73
2018-10-01T09:25:10.697Z,1.53
2018-10-01T09:27:38.880Z,1.47
2018-10-01T09:30:07.138Z,1.67
2018-10-01T09:32:35.402Z,1.47
2018-10-01T09:35:03.625Z,1.23
2018-10-01T09:37:32.140Z,1.30
2018-10-01T09:40:00.400Z,1.30
2018-10-01T09:42:28.656Z,1.27
2018-10-01T09:44:57.093Z,1.23
2018-10-01T09:47:25.294Z,1.23
2018-10-01T09:49:53.497Z,1.60
2018-10-01T09:52:21.789Z,1.20
2018-10-01T09:54:49.996Z,1.03
2018-10-01T09:57:18.300Z,1.30
2018-10-01T09:59:46.524Z,1.00
2018-10-01T10:02:14.875Z,1.40
2018-10-01T10:04:43.048Z,1.30
2018-10-01T10:07:11.256Z,1.60
2018-10-01T10:09:39.461Z,1.30
2018-10-01T10:12:07.669Z,1.10
2018-10-01T10:14:35.940Z,1.13
2018-10-01T10:17:04.186Z,1.07
2018-10-01T10:19:32.385Z,1.40
2018-10-01T10:22:00.627Z,1.20
2018-10-01T10:24:28.833Z,1.37
2018-10-01T10:26:57.066Z,1.10
2018-10-01T10:29:25.324Z,1.00
2018-10-01T10:31:53.514Z,1.57
2018-10-01T10:34:21.754Z,1.47
2018-10-01T10:36:49.933Z,1.30
2018-10-01T10:39:18.137Z,0.90
2018-10-01T10:41:46.455Z,1.40
2018-10-01T10:44:14.789Z,1.33
2018-10-01T10:46:43.072Z,0.80
2018-10-01T10:49:11.287Z,1.27
2018-10-01T10:51:39.563Z,1.17
2018-10-01T10:54:07.792Z,1.07
2018-10-01T10:56:36.067Z,1.20
2018-10-01T10:59:04.343Z,1.27
2018-10-01T11:01:32.557Z,1.10
2018-10-01T11:04:00.850Z,1.00
2018-10-01T11:06:29.128Z,1.67
2018-10-01T11:08:57.351Z,1.23
2018-10-01T11:11:25.565Z,1.20
2018-10-01T11:13:53.885Z,1.20
2018-10-01T11:16:22.046Z,1.20
2018-10-01T11:18:50.542Z,1.03
2018-10-01T11:21:18.660Z,1.40
2018-10-01T11:23:46.824Z,1.53
2018-10-01T11:26:15.046Z,1.00
2018-10-01T11:28:43.289Z,1.47
2018-10-01T11:31:11.574Z,0.97
2018-10-01T11:33:39.907Z,1.20
2018-10-01T11:36:08.056Z,0.90
2018-10-01T11:38:36.381Z,0.90
2018-10-01T11:41:04.656Z,0.67
2018-10-01T11:43:32.861Z,1.10
2018-10-01T11:46:01.077Z,1.00
2018-10-01T11:48:29.360Z,0.80
2018-10-01T11:50:57.578Z,1.20
2018-10-01T11:53:25.835Z,0.83
2018-10-01T11:55:54.046Z,1.30
2018-10-01T11:58:22.259Z,1.10
2018-10-01T12:00:50.534Z,0.80
2018-10-01T12:03:18.935Z,0.77
2018-10-01T12:05:47.029Z,1.00
2018-10-01T12:08:15.285Z,1.20
2018-10-01T12:10:43.788Z,1.90
2018-10-01T12:13:12.364Z,1.93
2018-10-01T12:15:40.700Z,1.70
2018-10-01T12:18:08.779Z,1.50
2018-10-01T12:20:37.218Z,1.37
2018-10-01T12:23:05.712Z,1.37
2018-10-01T12:25:33.924Z,1.37
2018-10-01T12:28:02.166Z,1.40
2018-10-01T12:30:30.395Z,1.53
2018-10-01T12:32:58.647Z,1.33
2018-10-01T12:35:26.878Z,1.50
2018-10-01T12:37:55.094Z,1.23
2018-10-01T12:40:23.337Z,1.37
2018-10-01T12:42:52.295Z,1.70
2018-10-01T12:45:20.516Z,1.70
2018-10-01T12:47:48.662Z,1.60
2018-10-01T12:50:16.987Z,1.40
2018-10-01T12:52:45.160Z,1.27
2018-10-01T12:55:13.409Z,1.60
2018-10-01T12:57:41.677Z,1.50
2018-10-01T13:00:09.901Z,1.70
2018-10-01T13:02:38.215Z,1.60
2018-10-01T13:05:06.619Z,1.80
2018-10-01T13:07:34.756Z,1.43
2018-10-01T13:10:02.989Z,1.40
2018-10-01T13:12:31.238Z,1.50
2018-10-01T13:14:59.599Z,1.17
2018-10-01T13:17:27.787Z,1.30
2018-10-01T13:19:56.066Z,1.20
2018-10-01T13:22:24.266Z,1.47
2018-10-01T13:24:52.443Z,1.43
2018-10-01T13:27:20.625Z,1.70
2018-10-01T13:29:48.886Z,1.50
2018-10-01T13:32:17.077Z,1.97
2018-10-01T13:34:45.322Z,1.90
2018-10-01T13:37:13.537Z,2.43
2018-10-01T13:39:41.725Z,1.20
2018-10-01T13:42:09.981Z,1.20
2018-10-01T13:44:38.307Z,1.10
2018-10-01T13:47:06.334Z,1.37
2018-10-01T13:49:34.525Z,1.20
2018-10-01T13:52:02.815Z,1.37
2018-10-01T13:54:30.963Z,1.50
2018-10-01T13:56:59.134Z,1.60
2018-10-01T13:59:27.335Z,1.47
2018-10-01T14:01:55.592Z,1.70
2018-10-01T14:04:23.740Z,1.97
2018-10-01T14:06:51.952Z,1.63
2018-10-01T14:09:20.199Z,1.57
2018-10-01T14:11:48.439Z,1.57
2018-10-01T14:14:16.649Z,2.00
2018-10-01T14:16:44.926Z,2.20
2018-10-01T14:19:13.162Z,2.30
2018-10-01T14:21:41.454Z,3.50
2018-10-01T14:24:09.633Z,3.83
2018-10-01T14:26:37.799Z,5.10
2018-10-01T14:29:06.090Z,3.77
2018-10-01T14:31:34.279Z,2.23
2018-10-01T14:34:02.551Z,1.97
2018-10-01T14:36:30.863Z,1.70
2018-10-01T14:38:58.969Z,1.80
2018-10-01T14:41:33.710Z,1.77
2018-10-01T14:44:01.918Z,1.83
2018-10-01T14:46:30.123Z,2.20
2018-10-01T14:48:58.334Z,2.03
2018-10-01T14:51:26.572Z,2.10
2018-10-01T14:53:54.820Z,1.70
2018-10-01T14:56:22.981Z,1.80
2018-10-01T14:58:51.304Z,1.50
2018-10-01T15:01:19.534Z,1.53
2018-10-01T15:03:47.759Z,2.17
2018-10-01T15:06:15.937Z,1.73
2018-10-01T15:08:44.220Z,1.47
2018-10-01T15:11:12.518Z,1.83
2018-10-01T15:13:40.733Z,1.90
2018-10-01T15:16:08.970Z,2.00
2018-10-01T15:18:37.186Z,2.47
2018-10-01T15:21:05.370Z,1.90
2018-10-01T15:23:33.592Z,1.90
2018-10-01T15:26:01.785Z,1.60
2018-10-01T15:28:29.957Z,2.00
2018-10-01T15:30:58.153Z,2.03
2018-10-01T15:33:26.329Z,1.10
2018-10-01T15:35:54.624Z,1.30
2018-10-01T15:38:22.778Z,1.67
2018-10-01T15:40:51.010Z,2.80
2018-10-01T15:43:19.195Z,3.37
2018-10-01T15:45:47.374Z,2.80
2018-10-01T15:48:15.549Z,2.20
2018-10-01T15:50:43.829Z,2.00
2018-10-01T15:53:12.364Z,2.10
2018-10-01T15:55:40.615Z,1.97
2018-10-01T15:58:08.789Z,2.27
2018-10-01T16:00:37.028Z,2.10
2018-10-01T16:03:05.271Z,2.13
2018-10-01T16:05:33.481Z,1.97
2018-10-01T16:08:01.686Z,1.77
2018-10-01T16:10:29.897Z,1.40
2018-10-01T16:12:58.091Z,1.27
2018-10-01T16:15:26.375Z,1.33
2018-10-01T16:17:54.650Z,1.27
2018-10-01T16:20:23.049Z,1.43
2018-10-01T16:22:51.309Z,1.50
2018-10-01T16:25:19.552Z,2.00
2018-10-01T16:27:47.756Z,1.37
2018-10-01T16:30:16.049Z,1.60
2018-10-01T16:32:44.246Z,1.37
2018-10-01T16:35:12.433Z,1.60
2018-10-01T16:37:41.154Z,1.63
2018-10-01T16:40:09.343Z,1.40
2018-10-01T16:42:37.612Z,1.97
2018-10-01T16:45:06.028Z,1.57
2018-10-01T16:47:34.273Z,1.63
2018-10-01T16:50:02.681Z,1.77
2018-10-01T16:52:31.105Z,3.53
2018-10-01T16:54:59.316Z,4.20
2018-10-01T16:57:27.514Z,3.00
2018-10-01T16:59:55.824Z,2.70
2018-10-01T17:02:24.080Z,2.70
2018-10-01T17:04:52.261Z,2.20
2018-10-01T17:07:20.465Z,1.90
2018-10-01T17:09:48.674Z,2.17
2018-10-01T17:12:16.943Z,1.63
2018-10-01T17:14:45.169Z,1.77
2018-10-01T17:17:13.385Z,1.20
2018-10-01T17:19:41.564Z,1.50
2018-10-01T17:22:09.769Z,1.60
2018-10-01T17:24:38.081Z,1.77
2018-10-01T17:27:06.449Z,1.60
2018-10-01T17:29:34.664Z,1.50
2018-10-01T17:32:03.069Z,1.43
2018-10-01T17:34:31.266Z,1.40
2018-10-01T17:36:59.529Z,1.37
2018-10-01T17:39:27.802Z,1.40
2018-10-01T17:41:56.049Z,1.80
2018-10-01T17:44:24.261Z,1.50
2018-10-01T17:46:52.552Z,1.97
2018-10-01T17:49:20.778Z,1.73
2018-10-01T17:51:49.031Z,1.87
2018-10-01T17:54:17.323Z,2.33
2018-10-01T17:56:45.469Z,2.17
2018-10-01T17:59:13.716Z,1.87
2018-10-01T18:01:41.989Z,2.00
2018-10-01T18:04:10.265Z,1.60
2018-10-01T18:06:38.501Z,1.60
2018-10-01T18:09:08.943Z,1.60
2018-10-01T18:11:37.169Z,1.53
2018-10-01T18:14:05.442Z,1.80
2018-10-01T18:16:33.693Z,1.70
2018-10-01T18:19:01.935Z,1.57
2018-10-01T18:21:30.170Z,1.60
2018-10-01T18:23:58.525Z,1.50
2018-10-01T18:26:26.858Z,1.70
2018-10-01T18:28:55.322Z,1.40
2018-10-01T18:31:23.551Z,2.17
2018-10-01T18:33:51.797Z,1.87
2018-10-01T18:36:20.129Z,1.93
2018-10-01T18:38:48.297Z,2.10
2018-10-01T18:41:16.635Z,2.27
2018-10-01T18:43:44.951Z,2.30
2018-10-01T18:46:14.011Z,2.00
2018-10-01T18:48:42.246Z,1.97
2018-10-01T18:51:10.511Z,2.17
2018-10-01T18:53:38.821Z,2.07
2018-10-01T18:56:07.085Z,2.10
2018-10-01T18:58:35.326Z,2.07
2018-10-01T19:01:03.762Z,2.20
2018-10-01T19:03:32.052Z,2.00
2018-10-01T19:06:00.354Z,1.97
2018-10-01T19:08:28.508Z,1.60
2018-10-01T19:10:56.776Z,1.70
2018-10-01T19:13:25.044Z,1.80
2018-10-01T19:15:53.353Z,1.60
2018-10-01T19:18:21.662Z,1.73
2018-10-01T19:20:49.858Z,1.50
2018-10-01T19:23:18.158Z,1.47
2018-10-01T19:25:46.433Z,1.80
2018-10-01T19:28:14.651Z,1.50
2018-10-01T19:30:42.864Z,2.07
2018-10-01T19:33:11.194Z,2.20
2018-10-01T19:35:39.454Z,1.80
2018-10-01T19:38:08.009Z,2.17
2018-10-01T19:40:36.357Z,2.17
2018-10-01T19:43:04.591Z,2.23
2018-10-01T19:45:32.920Z,2.20
2018-10-01T19:48:01.170Z,2.27
2018-10-01T19:50:29.904Z,1.90
2018-10-01T19:52:58.523Z,2.17
2018-10-01T19:55:26.641Z,2.20
2018-10-01T19:57:55.126Z,2.10
2018-10-01T20:00:23.516Z,2.13
2018-10-01T20:02:51.744Z,2.20
2018-10-01T20:05:20.049Z,2.10
2018-10-01T20:07:48.223Z,2.60
2018-10-01T20:10:16.537Z,2.20
2018-10-01T20:12:44.726Z,1.97
2018-10-01T20:15:13.067Z,2.10
2018-10-01T20:17:41.276Z,2.23
2018-10-01T20:20:09.606Z,1.93
2018-10-01T20:22:37.829Z,2.07
2018-10-01T20:25:06.105Z,2.33
2018-10-01T20:27:34.517Z,2.40
2018-10-01T20:30:02.767Z,2.33
2018-10-01T20:32:30.938Z,2.97
2018-10-01T20:34:59.346Z,2.30
2018-10-01T20:37:34.017Z,2.23
2018-10-01T20:40:02.249Z,2.40
2018-10-01T20:42:30.438Z,2.50
2018-10-01T20:44:58.702Z,2.60
2018-10-01T20:47:26.990Z,2.80
2018-10-01T20:49:55.201Z,2.60
2018-10-01T20:52:23.791Z,2.63
2018-10-01T20:54:51.927Z,2.67
2018-10-01T20:57:20.194Z,3.07
2018-10-01T20:59:48.450Z,3.17
2018-10-01T21:02:16.795Z,2.93
2018-10-01T21:04:45.021Z,2.70
2018-10-01T21:07:13.269Z,2.63
2018-10-01T21:09:41.514Z,3.23
2018-10-01T21:12:09.785Z,2.43
2018-10-01T21:14:38.084Z,3.10
2018-10-01T21:17:06.338Z,3.00
2018-10-01T21:19:34.549Z,3.40
2018-10-01T21:22:02.879Z,3.30
2018-10-01T21:24:34.138Z,3.93
2018-10-01T21:27:02.465Z,3.80
2018-10-01T21:29:30.703Z,3.60
2018-10-01T21:31:58.991Z,3.40
2018-10-01T21:34:27.175Z,4.33
2018-10-01T21:36:55.389Z,3.80
2018-10-01T21:40:31.455Z,3.87
2018-10-01T21:42:59.717Z,4.20
2018-10-01T21:45:27.916Z,4.20
2018-10-01T21:47:56.116Z,4.10
2018-10-01T21:50:24.301Z,3.70
2018-10-01T21:52:52.501Z,3.90
2018-10-01T21:55:20.729Z,4.00
2018-10-01T21:57:48.942Z,3.83
2018-10-01T22:00:17.146Z,3.60
2018-10-01T22:02:45.622Z,3.40
2018-10-01T22:05:13.878Z,3.27
2018-10-01T22:07:42.150Z,4.00
2018-10-01T22:10:10.392Z,3.90
2018-10-01T22:12:38.596Z,3.50
2018-10-01T22:15:06.798Z,3.63
2018-10-01T22:17:35.071Z,3.67
2018-10-01T22:20:03.387Z,3.80
2018-10-01T22:22:31.674Z,3.87
2018-10-01T22:24:59.924Z,3.50
2018-10-01T22:27:28.161Z,3.10
2018-10-01T22:29:56.345Z,3.20
2018-10-01T22:32:24.581Z,3.80
2018-10-01T22:34:52.840Z,3.87
2018-10-01T22:37:21.058Z,3.83
2018-10-01T22:39:49.268Z,3.47
2018-10-01T22:42:17.513Z,3.50
2018-10-01T22:44:45.737Z,3.47
2018-10-01T22:47:14.019Z,3.40
2018-10-01T22:49:42.275Z,3.40
2018-10-01T22:52:10.443Z,3.80
2018-10-01T22:54:38.649Z,4.10
2018-10-01T22:57:06.878Z,4.27
2018-10-01T22:59:35.137Z,4.10
2018-10-01T23:02:03.409Z,3.90
2018-10-01T23:04:31.596Z,4.00
2018-10-01T23:06:59.809Z,4.13
2018-10-01T23:09:28.034Z,4.20
2018-10-01T23:11:56.233Z,4.30
2018-10-01T23:14:24.437Z,4.40
2018-10-01T23:16:52.680Z,4.23
2018-10-01T23:19:20.881Z,4.00
2018-10-01T23:21:49.102Z,3.83
2018-10-01T23:24:17.349Z,4.83
2018-10-01T23:26:45.578Z,3.77
2018-10-01T23:29:13.766Z,4.40
2018-10-01T23:31:41.977Z,4.30
2018-10-01T23:34:10.189Z,4.50
2018-10-01T23:36:38.401Z,4.57
2018-10-01T23:39:06.996Z,4.50
2018-10-01T23:41:35.242Z,4.63
2018-10-01T23:44:03.433Z,4.20
2018-10-01T23:46:31.645Z,4.67
2018-10-01T23:48:59.856Z,4.30
2018-10-01T23:51:28.042Z,4.00
2018-10-01T23:53:56.229Z,3.90
2018-10-01T23:56:24.485Z,4.70
2018-10-01T23:58:52.713Z,4.70
